sensor_id;sensor_type;location;lat;lon;timestamp;temperature;humidity
69747;DHT22;57018;50.278;19.134;2023-02-28T00:00:42;1.50;57.90
69747;DHT22;57018;50.278;19.134;2023-02-28T00:53:23;1.10;60.80
69747;DHT22;57018;50.278;19.134;2023-02-28T01:25:38;1.40;62.40
69747;DHT22;57018;50.278;19.134;2023-02-28T01:28:08;1.10;62.50
69747;DHT22;57018;50.278;19.134;2023-02-28T01:33:09;0.90;63.30
69747;DHT22;57018;50.278;19.134;2023-02-28T01:35:41;1.00;63.30
69747;DHT22;57018;50.278;19.134;2023-02-28T01:38:11;1.10;63.50
69747;DHT22;57018;50.278;19.134;2023-02-28T01:40:41;1.00;63.50
69747;DHT22;57018;50.278;19.134;2023-02-28T02:06:57;-0.10;74.30
69747;DHT22;57018;50.278;19.134;2023-02-28T02:15:14;-0.60;76.50
69747;DHT22;57018;50.278;19.134;2023-02-28T02:18:00;-0.80;78.20
69747;DHT22;57018;50.278;19.134;2023-02-28T02:20:58;-0.80;78.30
69747;DHT22;57018;50.278;19.134;2023-02-28T02:23:52;-1.00;79.10
69747;DHT22;57018;50.278;19.134;2023-02-28T02:26:57;-1.10;78.80
69747;DHT22;57018;50.278;19.134;2023-02-28T02:35:29;-1.40;81.10
69747;DHT22;57018;50.278;19.134;2023-02-28T02:38:06;-1.60;82.30
69747;DHT22;57018;50.278;19.134;2023-02-28T02:40:42;-1.70;82.60
69747;DHT22;57018;50.278;19.134;2023-02-28T02:43:19;-1.70;83.40
69747;DHT22;57018;50.278;19.134;2023-02-28T02:45:53;-1.80;82.70
69747;DHT22;57018;50.278;19.134;2023-02-28T02:48:27;-1.80;84.00
69747;DHT22;57018;50.278;19.134;2023-02-28T02:51:01;-1.90;84.20
69747;DHT22;57018;50.278;19.134;2023-02-28T02:53:37;-2.00;84.70
69747;DHT22;57018;50.278;19.134;2023-02-28T02:56:08;-2.00;85.00
69747;DHT22;57018;50.278;19.134;2023-02-28T02:58:38;-2.00;85.10
69747;DHT22;57018;50.278;19.134;2023-02-28T03:01:14;-2.00;85.00
69747;DHT22;57018;50.278;19.134;2023-02-28T03:03:46;-2.10;86.10
69747;DHT22;57018;50.278;19.134;2023-02-28T03:06:16;-2.20;86.20
69747;DHT22;57018;50.278;19.134;2023-02-28T03:08:46;-2.20;86.90
69747;DHT22;57018;50.278;19.134;2023-02-28T03:11:16;-2.20;86.50
69747;DHT22;57018;50.278;19.134;2023-02-28T03:14:13;-2.30;87.00
69747;DHT22;57018;50.278;19.134;2023-02-28T03:17:03;-2.20;87.20
69747;DHT22;57018;50.278;19.134;2023-02-28T03:19:52;-2.30;87.40
69747;DHT22;57018;50.278;19.134;2023-02-28T03:22:51;-2.40;87.50
69747;DHT22;57018;50.278;19.134;2023-02-28T03:25:22;-2.40;87.80
69747;DHT22;57018;50.278;19.134;2023-02-28T03:28:02;-2.40;87.30
69747;DHT22;57018;50.278;19.134;2023-02-28T03:30:41;-2.40;87.70
69747;DHT22;57018;50.278;19.134;2023-02-28T03:33:16;-2.40;87.90
69747;DHT22;57018;50.278;19.134;2023-02-28T03:35:51;-2.40;86.80
69747;DHT22;57018;50.278;19.134;2023-02-28T03:38:27;-2.60;86.60
69747;DHT22;57018;50.278;19.134;2023-02-28T03:41:02;-2.60;86.30
69747;DHT22;57018;50.278;19.134;2023-02-28T03:43:37;-2.60;86.80
69747;DHT22;57018;50.278;19.134;2023-02-28T03:46:23;-2.70;87.20
69747;DHT22;57018;50.278;19.134;2023-02-28T03:48:59;-2.60;88.40
69747;DHT22;57018;50.278;19.134;2023-02-28T03:51:31;-2.60;88.40
69747;DHT22;57018;50.278;19.134;2023-02-28T03:54:07;-2.60;87.90
69747;DHT22;57018;50.278;19.134;2023-02-28T03:56:41;-2.50;87.70
69747;DHT22;57018;50.278;19.134;2023-02-28T03:59:18;-2.60;87.80
69747;DHT22;57018;50.278;19.134;2023-02-28T04:01:50;-2.60;88.60
69747;DHT22;57018;50.278;19.134;2023-02-28T04:04:20;-2.50;87.80
69747;DHT22;57018;50.278;19.134;2023-02-28T04:07:03;-2.50;87.90
69747;DHT22;57018;50.278;19.134;2023-02-28T04:09:34;-2.50;88.20
69747;DHT22;57018;50.278;19.134;2023-02-28T04:12:05;-2.50;87.60
69747;DHT22;57018;50.278;19.134;2023-02-28T04:14:35;-2.50;87.80
69747;DHT22;57018;50.278;19.134;2023-02-28T04:17:04;-2.50;87.80
69747;DHT22;57018;50.278;19.134;2023-02-28T04:19:34;-2.60;87.60
69747;DHT22;57018;50.278;19.134;2023-02-28T04:22:04;-2.50;87.50
69747;DHT22;57018;50.278;19.134;2023-02-28T04:24:34;-2.50;88.00
69747;DHT22;57018;50.278;19.134;2023-02-28T04:27:04;-2.60;87.80
69747;DHT22;57018;50.278;19.134;2023-02-28T04:29:34;-2.60;88.30
69747;DHT22;57018;50.278;19.134;2023-02-28T04:32:04;-2.70;88.50
69747;DHT22;57018;50.278;19.134;2023-02-28T04:34:34;-2.70;88.60
69747;DHT22;57018;50.278;19.134;2023-02-28T04:37:04;-2.70;88.90
69747;DHT22;57018;50.278;19.134;2023-02-28T04:39:36;-2.70;89.60
69747;DHT22;57018;50.278;19.134;2023-02-28T04:42:06;-2.70;89.60
69747;DHT22;57018;50.278;19.134;2023-02-28T04:44:36;-2.60;89.50
69747;DHT22;57018;50.278;19.134;2023-02-28T04:47:06;-2.70;89.40
69747;DHT22;57018;50.278;19.134;2023-02-28T04:49:36;-2.70;89.40
69747;DHT22;57018;50.278;19.134;2023-02-28T04:52:06;-2.70;89.80
69747;DHT22;57018;50.278;19.134;2023-02-28T04:54:36;-2.80;89.60
69747;DHT22;57018;50.278;19.134;2023-02-28T04:57:07;-2.70;89.80
69747;DHT22;57018;50.278;19.134;2023-02-28T04:59:37;-2.70;89.70
69747;DHT22;57018;50.278;19.134;2023-02-28T05:02:07;-2.70;89.60
69747;DHT22;57018;50.278;19.134;2023-02-28T05:04:37;-2.70;89.90
69747;DHT22;57018;50.278;19.134;2023-02-28T05:07:06;-2.80;90.50
69747;DHT22;57018;50.278;19.134;2023-02-28T05:09:36;-2.70;90.50
69747;DHT22;57018;50.278;19.134;2023-02-28T05:12:07;-2.70;90.60
69747;DHT22;57018;50.278;19.134;2023-02-28T05:14:38;-2.70;91.00
69747;DHT22;57018;50.278;19.134;2023-02-28T05:17:08;-2.80;91.00
69747;DHT22;57018;50.278;19.134;2023-02-28T05:19:38;-2.80;90.70
69747;DHT22;57018;50.278;19.134;2023-02-28T05:22:14;-2.80;91.00
69747;DHT22;57018;50.278;19.134;2023-02-28T05:24:45;-2.80;91.60
69747;DHT22;57018;50.278;19.134;2023-02-28T05:27:15;-2.80;91.50
69747;DHT22;57018;50.278;19.134;2023-02-28T05:29:44;-2.90;91.40
69747;DHT22;57018;50.278;19.134;2023-02-28T05:32:14;-2.90;91.90
69747;DHT22;57018;50.278;19.134;2023-02-28T05:34:44;-2.80;92.00
69747;DHT22;57018;50.278;19.134;2023-02-28T05:37:15;-2.80;91.90
69747;DHT22;57018;50.278;19.134;2023-02-28T05:39:45;-2.80;92.40
69747;DHT22;57018;50.278;19.134;2023-02-28T05:42:15;-2.80;91.80
69747;DHT22;57018;50.278;19.134;2023-02-28T05:44:45;-2.80;92.50
69747;DHT22;57018;50.278;19.134;2023-02-28T05:47:16;-2.80;92.10
69747;DHT22;57018;50.278;19.134;2023-02-28T05:49:45;-2.80;92.40
69747;DHT22;57018;50.278;19.134;2023-02-28T05:52:15;-2.80;91.80
69747;DHT22;57018;50.278;19.134;2023-02-28T05:54:45;-2.70;92.50
69747;DHT22;57018;50.278;19.134;2023-02-28T05:57:15;-2.70;92.10
69747;DHT22;57018;50.278;19.134;2023-02-28T05:59:43;-2.60;92.30
69747;DHT22;57018;50.278;19.134;2023-02-28T06:02:16;-2.60;91.50
69747;DHT22;57018;50.278;19.134;2023-02-28T06:04:46;-2.70;91.60
69747;DHT22;57018;50.278;19.134;2023-02-28T06:07:16;-2.50;91.30
69747;DHT22;57018;50.278;19.134;2023-02-28T06:09:46;-2.50;91.30
69747;DHT22;57018;50.278;19.134;2023-02-28T06:12:16;-2.40;91.20
69747;DHT22;57018;50.278;19.134;2023-02-28T06:14:46;-2.40;91.00
69747;DHT22;57018;50.278;19.134;2023-02-28T06:17:18;-2.30;91.10
69747;DHT22;57018;50.278;19.134;2023-02-28T06:19:48;-2.30;91.00
69747;DHT22;57018;50.278;19.134;2023-02-28T06:22:18;-2.20;90.50
69747;DHT22;57018;50.278;19.134;2023-02-28T06:24:48;-2.20;90.50
69747;DHT22;57018;50.278;19.134;2023-02-28T06:27:18;-2.10;90.40
69747;DHT22;57018;50.278;19.134;2023-02-28T06:29:48;-2.00;90.60
69747;DHT22;57018;50.278;19.134;2023-02-28T06:32:18;-2.00;90.30
69747;DHT22;57018;50.278;19.134;2023-02-28T06:34:48;-2.00;90.00
69747;DHT22;57018;50.278;19.134;2023-02-28T06:37:19;-1.90;90.10
69747;DHT22;57018;50.278;19.134;2023-02-28T06:39:49;-1.90;90.40
69747;DHT22;57018;50.278;19.134;2023-02-28T06:42:19;-1.90;89.60
69747;DHT22;57018;50.278;19.134;2023-02-28T06:44:50;-1.80;89.70
69747;DHT22;57018;50.278;19.134;2023-02-28T06:47:18;-1.80;89.30
69747;DHT22;57018;50.278;19.134;2023-02-28T06:52:34;-1.60;88.80
69747;DHT22;57018;50.278;19.134;2023-02-28T06:55:09;-1.50;88.50
69747;DHT22;57018;50.278;19.134;2023-02-28T06:57:40;-1.50;88.20
69747;DHT22;57018;50.278;19.134;2023-02-28T07:00:12;-1.30;87.80
69747;DHT22;57018;50.278;19.134;2023-02-28T07:02:42;-1.20;87.70
69747;DHT22;57018;50.278;19.134;2023-02-28T07:05:13;-1.10;87.00
69747;DHT22;57018;50.278;19.134;2023-02-28T07:07:43;-1.00;86.00
69747;DHT22;57018;50.278;19.134;2023-02-28T07:10:13;-1.00;85.30
69747;DHT22;57018;50.278;19.134;2023-02-28T07:12:45;-0.90;85.30
69747;DHT22;57018;50.278;19.134;2023-02-28T07:15:15;-0.80;85.20
69747;DHT22;57018;50.278;19.134;2023-02-28T07:17:45;-0.70;84.20
69747;DHT22;57018;50.278;19.134;2023-02-28T07:20:15;-0.60;82.70
69747;DHT22;57018;50.278;19.134;2023-02-28T07:22:45;-0.50;82.60
69747;DHT22;57018;50.278;19.134;2023-02-28T07:25:16;-0.40;81.80
69747;DHT22;57018;50.278;19.134;2023-02-28T07:27:46;-0.30;80.90
69747;DHT22;57018;50.278;19.134;2023-02-28T07:30:16;-0.10;79.80
69747;DHT22;57018;50.278;19.134;2023-02-28T07:32:46;-0.10;79.80
69747;DHT22;57018;50.278;19.134;2023-02-28T07:35:17;0.00;80.00
69747;DHT22;57018;50.278;19.134;2023-02-28T07:37:47;0.00;79.00
69747;DHT22;57018;50.278;19.134;2023-02-28T07:40:26;0.00;78.30
69747;DHT22;57018;50.278;19.134;2023-02-28T07:42:55;0.00;78.70
69747;DHT22;57018;50.278;19.134;2023-02-28T07:45:25;0.00;77.70
69747;DHT22;57018;50.278;19.134;2023-02-28T07:47:57;0.10;77.80
69747;DHT22;57018;50.278;19.134;2023-02-28T07:50:27;0.10;77.00
69747;DHT22;57018;50.278;19.134;2023-02-28T07:53:03;0.10;77.60
69747;DHT22;57018;50.278;19.134;2023-02-28T07:55:33;0.10;75.60
69747;DHT22;57018;50.278;19.134;2023-02-28T07:58:03;0.20;74.00
69747;DHT22;57018;50.278;19.134;2023-02-28T08:00:33;0.20;74.80
69747;DHT22;57018;50.278;19.134;2023-02-28T08:03:03;0.20;73.90
69747;DHT22;57018;50.278;19.134;2023-02-28T08:05:33;0.10;72.40
69747;DHT22;57018;50.278;19.134;2023-02-28T08:08:08;0.10;72.70
69747;DHT22;57018;50.278;19.134;2023-02-28T08:10:38;0.20;72.80
69747;DHT22;57018;50.278;19.134;2023-02-28T08:13:08;0.20;73.40
69747;DHT22;57018;50.278;19.134;2023-02-28T08:15:39;0.20;73.20
69747;DHT22;57018;50.278;19.134;2023-02-28T08:18:09;0.20;72.80
69747;DHT22;57018;50.278;19.134;2023-02-28T08:20:39;0.10;72.60
69747;DHT22;57018;50.278;19.134;2023-02-28T08:23:09;0.20;73.00
69747;DHT22;57018;50.278;19.134;2023-02-28T08:25:39;0.20;72.20
69747;DHT22;57018;50.278;19.134;2023-02-28T08:28:09;0.40;71.70
69747;DHT22;57018;50.278;19.134;2023-02-28T08:30:39;0.50;71.00
69747;DHT22;57018;50.278;19.134;2023-02-28T08:33:09;0.30;68.60
69747;DHT22;57018;50.278;19.134;2023-02-28T08:35:39;0.50;68.90
69747;DHT22;57018;50.278;19.134;2023-02-28T08:43:24;0.90;66.30
69747;DHT22;57018;50.278;19.134;2023-02-28T08:45:55;1.10;65.10
69747;DHT22;57018;50.278;19.134;2023-02-28T08:48:26;1.30;64.80
69747;DHT22;57018;50.278;19.134;2023-02-28T08:51:01;1.40;64.80
69747;DHT22;57018;50.278;19.134;2023-02-28T08:53:32;1.70;64.70
69747;DHT22;57018;50.278;19.134;2023-02-28T08:56:05;1.80;63.30
69747;DHT22;57018;50.278;19.134;2023-02-28T08:58:37;2.10;62.20
69747;DHT22;57018;50.278;19.134;2023-02-28T09:01:12;1.80;61.70
69747;DHT22;57018;50.278;19.134;2023-02-28T09:03:44;1.70;59.60
69747;DHT22;57018;50.278;19.134;2023-02-28T09:06:16;2.00;59.30
69747;DHT22;57018;50.278;19.134;2023-02-28T09:08:47;1.90;60.10
69747;DHT22;57018;50.278;19.134;2023-02-28T09:11:17;1.90;60.30
69747;DHT22;57018;50.278;19.134;2023-02-28T09:13:48;2.20;60.70
69747;DHT22;57018;50.278;19.134;2023-02-28T09:16:18;2.20;58.50
69747;DHT22;57018;50.278;19.134;2023-02-28T09:18:49;2.60;59.00
69747;DHT22;57018;50.278;19.134;2023-02-28T09:21:19;2.70;58.10
69747;DHT22;57018;50.278;19.134;2023-02-28T09:23:50;2.90;58.50
69747;DHT22;57018;50.278;19.134;2023-02-28T09:26:22;3.20;57.70
69747;DHT22;57018;50.278;19.134;2023-02-28T09:28:53;3.40;56.80
69747;DHT22;57018;50.278;19.134;2023-02-28T09:31:25;3.60;57.00
69747;DHT22;57018;50.278;19.134;2023-02-28T09:33:56;3.90;55.30
69747;DHT22;57018;50.278;19.134;2023-02-28T09:36:28;4.00;55.80
69747;DHT22;57018;50.278;19.134;2023-02-28T09:38:58;3.80;54.50
69747;DHT22;57018;50.278;19.134;2023-02-28T09:41:31;4.10;55.50
69747;DHT22;57018;50.278;19.134;2023-02-28T09:44:05;4.40;54.60
69747;DHT22;57018;50.278;19.134;2023-02-28T09:46:37;4.60;53.70
69747;DHT22;57018;50.278;19.134;2023-02-28T09:49:12;4.80;53.90
69747;DHT22;57018;50.278;19.134;2023-02-28T09:51:50;4.60;53.30
69747;DHT22;57018;50.278;19.134;2023-02-28T09:54:22;3.50;55.30
69747;DHT22;57018;50.278;19.134;2023-02-28T09:56:58;3.60;56.40
69747;DHT22;57018;50.278;19.134;2023-02-28T09:59:51;3.90;55.60
69747;DHT22;57018;50.278;19.134;2023-02-28T10:02:40;3.70;55.10
69747;DHT22;57018;50.278;19.134;2023-02-28T10:05:14;3.60;55.60
69747;DHT22;57018;50.278;19.134;2023-02-28T10:07:56;3.60;56.30
69747;DHT22;57018;50.278;19.134;2023-02-28T10:10:35;3.40;56.10
69747;DHT22;57018;50.278;19.134;2023-02-28T10:13:14;3.40;57.00
69747;DHT22;57018;50.278;19.134;2023-02-28T10:15:48;3.20;57.30
69747;DHT22;57018;50.278;19.134;2023-02-28T10:18:23;3.10;58.00
69747;DHT22;57018;50.278;19.134;2023-02-28T10:20:55;3.40;57.50
69747;DHT22;57018;50.278;19.134;2023-02-28T10:23:28;3.60;57.70
69747;DHT22;57018;50.278;19.134;2023-02-28T10:26:08;3.90;56.50
69747;DHT22;57018;50.278;19.134;2023-02-28T10:28:41;4.30;56.70
69747;DHT22;57018;50.278;19.134;2023-02-28T10:31:14;4.60;55.40
69747;DHT22;57018;50.278;19.134;2023-02-28T10:33:46;5.20;53.30
69747;DHT22;57018;50.278;19.134;2023-02-28T10:36:18;4.60;54.00
69747;DHT22;57018;50.278;19.134;2023-02-28T10:38:47;4.60;53.50
69747;DHT22;57018;50.278;19.134;2023-02-28T10:41:26;4.70;51.80
69747;DHT22;57018;50.278;19.134;2023-02-28T10:44:14;4.90;52.40
69747;DHT22;57018;50.278;19.134;2023-02-28T10:46:47;5.10;51.20
69747;DHT22;57018;50.278;19.134;2023-02-28T10:49:21;5.00;51.70
69747;DHT22;57018;50.278;19.134;2023-02-28T10:51:54;5.60;51.90
69747;DHT22;57018;50.278;19.134;2023-02-28T10:54:29;5.60;51.00
69747;DHT22;57018;50.278;19.134;2023-02-28T10:57:17;5.90;50.50
69747;DHT22;57018;50.278;19.134;2023-02-28T10:59:51;5.30;50.90
69747;DHT22;57018;50.278;19.134;2023-02-28T11:02:34;4.80;52.60
69747;DHT22;57018;50.278;19.134;2023-02-28T11:05:24;4.90;52.80
69747;DHT22;57018;50.278;19.134;2023-02-28T11:07:58;4.70;52.70
69747;DHT22;57018;50.278;19.134;2023-02-28T11:10:31;4.80;53.80
69747;DHT22;57018;50.278;19.134;2023-02-28T11:13:03;4.70;53.90
69747;DHT22;57018;50.278;19.134;2023-02-28T11:15:34;4.40;54.40
69747;DHT22;57018;50.278;19.134;2023-02-28T11:18:20;4.10;53.70
69747;DHT22;57018;50.278;19.134;2023-02-28T11:20:53;4.20;54.40
69747;DHT22;57018;50.278;19.134;2023-02-28T11:23:27;3.80;55.40
69747;DHT22;57018;50.278;19.134;2023-02-28T11:26:01;3.90;56.00
69747;DHT22;57018;50.278;19.134;2023-02-28T11:28:32;3.50;56.30
69747;DHT22;57018;50.278;19.134;2023-02-28T11:31:06;3.60;56.70
69747;DHT22;57018;50.278;19.134;2023-02-28T11:33:44;3.50;56.90
69747;DHT22;57018;50.278;19.134;2023-02-28T11:36:21;3.50;57.60
69747;DHT22;57018;50.278;19.134;2023-02-28T11:38:55;3.80;57.40
69747;DHT22;57018;50.278;19.134;2023-02-28T11:41:55;3.40;57.20
69747;DHT22;57018;50.278;19.134;2023-02-28T11:44:41;3.60;57.60
69747;DHT22;57018;50.278;19.134;2023-02-28T11:47:19;3.40;57.40
69747;DHT22;57018;50.278;19.134;2023-02-28T11:50:04;3.40;57.40
69747;DHT22;57018;50.278;19.134;2023-02-28T21:15:35;-2.90;94.80
69747;DHT22;57018;50.278;19.134;2023-02-28T21:18:05;-2.60;96.30
69747;DHT22;57018;50.278;19.134;2023-02-28T21:20:36;-2.30;95.60
69747;DHT22;57018;50.278;19.134;2023-02-28T21:25:36;-2.30;94.90
69747;DHT22;57018;50.278;19.134;2023-02-28T21:28:06;-2.20;94.30
69747;DHT22;57018;50.278;19.134;2023-02-28T21:30:37;-2.10;94.30
69747;DHT22;57018;50.278;19.134;2023-02-28T21:33:06;-2.10;94.10
69747;DHT22;57018;50.278;19.134;2023-02-28T21:35:36;-2.10;93.50
69747;DHT22;57018;50.278;19.134;2023-02-28T21:38:06;-2.00;93.40
69747;DHT22;57018;50.278;19.134;2023-02-28T21:40:36;-2.00;93.20
69747;DHT22;57018;50.278;19.134;2023-02-28T21:43:06;-1.90;93.40
69747;DHT22;57018;50.278;19.134;2023-02-28T21:45:36;-2.00;92.80
69747;DHT22;57018;50.278;19.134;2023-02-28T21:48:06;-1.90;92.50
69747;DHT22;57018;50.278;19.134;2023-02-28T21:50:37;-1.90;92.50
69747;DHT22;57018;50.278;19.134;2023-02-28T21:53:07;-2.00;92.10
69747;DHT22;57018;50.278;19.134;2023-02-28T21:55:39;-2.10;91.90
69747;DHT22;57018;50.278;19.134;2023-02-28T21:58:11;-2.10;92.30
69747;DHT22;57018;50.278;19.134;2023-02-28T22:00:41;-2.10;92.70
69747;DHT22;57018;50.278;19.134;2023-02-28T22:03:13;-2.10;92.90
69747;DHT22;57018;50.278;19.134;2023-02-28T22:05:43;-2.00;93.00
69747;DHT22;57018;50.278;19.134;2023-02-28T22:08:13;-2.10;92.70
69747;DHT22;57018;50.278;19.134;2023-02-28T22:10:43;-2.00;92.50
69747;DHT22;57018;50.278;19.134;2023-02-28T22:13:13;-2.10;92.10
69747;DHT22;57018;50.278;19.134;2023-02-28T22:15:43;-2.20;92.10
69747;DHT22;57018;50.278;19.134;2023-02-28T22:18:12;-2.30;92.00
69747;DHT22;57018;50.278;19.134;2023-02-28T22:20:42;-2.20;92.50
69747;DHT22;57018;50.278;19.134;2023-02-28T22:23:12;-2.40;92.80
69747;DHT22;57018;50.278;19.134;2023-02-28T22:25:42;-2.30;93.40
69747;DHT22;57018;50.278;19.134;2023-02-28T22:28:12;-2.30;94.30
69747;DHT22;57018;50.278;19.134;2023-02-28T22:30:41;-2.30;94.00
69747;DHT22;57018;50.278;19.134;2023-02-28T22:33:11;-2.20;94.30
69747;DHT22;57018;50.278;19.134;2023-02-28T22:35:42;-2.30;94.50
69747;DHT22;57018;50.278;19.134;2023-02-28T22:38:12;-2.30;94.80
69747;DHT22;57018;50.278;19.134;2023-02-28T22:40:42;-2.40;94.70
69747;DHT22;57018;50.278;19.134;2023-02-28T22:43:12;-2.30;94.90
69747;DHT22;57018;50.278;19.134;2023-02-28T22:45:42;-2.30;94.50
69747;DHT22;57018;50.278;19.134;2023-02-28T22:48:12;-2.40;94.30
69747;DHT22;57018;50.278;19.134;2023-02-28T22:50:42;-2.40;94.50
69747;DHT22;57018;50.278;19.134;2023-02-28T22:53:12;-2.40;94.10
69747;DHT22;57018;50.278;19.134;2023-02-28T22:55:41;-2.50;95.60
69747;DHT22;57018;50.278;19.134;2023-02-28T22:58:11;-2.40;97.00
69747;DHT22;57018;50.278;19.134;2023-02-28T23:00:41;-2.40;96.70
69747;DHT22;57018;50.278;19.134;2023-02-28T23:03:11;-2.30;96.20
69747;DHT22;57018;50.278;19.134;2023-02-28T23:05:41;-2.30;96.60
69747;DHT22;57018;50.278;19.134;2023-02-28T23:08:10;-2.30;96.50
69747;DHT22;57018;50.278;19.134;2023-02-28T23:10:43;-2.40;95.90
69747;DHT22;57018;50.278;19.134;2023-02-28T23:13:13;-2.30;96.00
69747;DHT22;57018;50.278;19.134;2023-02-28T23:15:43;-2.30;95.90
69747;DHT22;57018;50.278;19.134;2023-02-28T23:18:13;-2.30;95.50
69747;DHT22;57018;50.278;19.134;2023-02-28T23:20:44;-2.40;95.30
69747;DHT22;57018;50.278;19.134;2023-02-28T23:23:13;-2.30;95.60
69747;DHT22;57018;50.278;19.134;2023-02-28T23:25:43;-2.40;95.40
69747;DHT22;57018;50.278;19.134;2023-02-28T23:28:13;-2.30;95.10
69747;DHT22;57018;50.278;19.134;2023-02-28T23:30:43;-2.30;95.50
69747;DHT22;57018;50.278;19.134;2023-02-28T23:33:13;-2.30;95.60
69747;DHT22;57018;50.278;19.134;2023-02-28T23:35:43;-2.40;95.60
69747;DHT22;57018;50.278;19.134;2023-02-28T23:38:13;-2.30;95.50
69747;DHT22;57018;50.278;19.134;2023-02-28T23:40:43;-2.40;95.70
69747;DHT22;57018;50.278;19.134;2023-02-28T23:43:13;-2.30;95.50
69747;DHT22;57018;50.278;19.134;2023-02-28T23:45:42;-2.40;95.40
69747;DHT22;57018;50.278;19.134;2023-02-28T23:48:14;-2.40;95.50
69747;DHT22;57018;50.278;19.134;2023-02-28T23:50:44;-2.40;95.10
69747;DHT22;57018;50.278;19.134;2023-02-28T23:53:14;-2.40;95.20
69747;DHT22;57018;50.278;19.134;2023-02-28T23:55:47;-2.40;95.20
69747;DHT22;57018;50.278;19.134;2023-02-28T23:58:17;-2.50;95.30
